Main page
METAR-TAF:

METAR-TAF

Airports :

Tindouf Airport

Tindouf, Algeria

latitude: 27-40N, longitude: 008-08W, elevation: 431 m

Current weather observation

The report was made 1 hour and 3 minutes ago, at 05:00 UTC
Wind 5 kt from the West/Southwest
Temperature 17°C
Humidity 42%
Pressure 1011 hPa
Visibility 10 km or more
Scattered clouds at a height of 4600 ft
Broken clouds at a height of 10000 ft

METAR: DAOF 080500Z 25005KT 9999 SCT046 BKN100 17/04 Q1011

Time: 07:03 (06:03 UTC)

Forecast

The report was made 4 hours and 3 minutes ago, at 02:00 UTC
Forecast valid from 08 at 03 UTC to 08 at 12 UTC
Wind 5 kt from the South/Southwest
Visibility 10 km or more
Scattered clouds at a height of 4600 ft
Broken clouds at a height of 10000 ft

TAF: DAOF 080200Z 0803/0812 21005KT 9999 SCT046 BKN100

Weather observations and forecasts of more than 4000 airports (METAR and TAF reports).

The available stations are represented by yellow and red dots on the map.

Hover mouse over dot to see the name of the station.

Then click to see weather observations and forecasts.

To change the map : click on the green buttons with a black cross to zoom in, on the green button with a dash to zoom out, or on the green arrows for adjacent maps.


METAR-TAF: